createdAt,value
2022-09-23T00:00:55.924Z,3.14286
2022-09-23T00:01:56.003Z,3.64286
2022-09-23T00:02:56.050Z,3.21429
2022-09-23T00:03:56.032Z,3.5
2022-09-23T00:04:56.067Z,3.64286
2022-09-23T00:05:56.104Z,3.35714
2022-09-23T00:06:56.125Z,3.71429
2022-09-23T00:07:56.154Z,3.42857
2022-09-23T00:08:56.183Z,3.14286
2022-09-23T00:09:56.224Z,3.35714
2022-09-23T00:10:56.262Z,3.71429
2022-09-23T00:11:56.299Z,3.85714
2022-09-23T00:12:56.336Z,3.64286
2022-09-23T00:13:56.378Z,3.71429
2022-09-23T00:14:56.416Z,3.71429
2022-09-23T00:15:56.455Z,3.85714
2022-09-23T00:16:56.542Z,3.71429
2022-09-23T00:17:56.523Z,3.5
2022-09-23T00:18:56.556Z,3.5
2022-09-23T00:19:56.585Z,3.71429
2022-09-23T00:20:56.616Z,3.71429
2022-09-23T00:21:56.660Z,3.71429
2022-09-23T00:22:56.696Z,4
2022-09-23T00:23:56.726Z,3.5
2022-09-23T00:24:56.762Z,3.71429
2022-09-23T00:25:56.798Z,3.42857
2022-09-23T00:26:56.836Z,3.35714
2022-09-23T00:27:56.868Z,3.85714
2022-09-23T00:28:56.901Z,3.64286
2022-09-23T00:29:56.934Z,3.71429
2022-09-23T00:30:57.029Z,3.71429
2022-09-23T00:31:57.014Z,3.35714
2022-09-23T00:32:57.048Z,3.5
2022-09-23T00:33:57.087Z,3.5
2022-09-23T00:34:57.116Z,3.64286
2022-09-23T00:35:57.148Z,3.71429
2022-09-23T00:36:57.188Z,3.5
2022-09-23T00:37:57.215Z,3.42857
2022-09-23T00:38:57.246Z,3.5
2022-09-23T00:39:57.282Z,3.85714
2022-09-23T00:40:57.314Z,3.85714
2022-09-23T00:41:57.344Z,3.35714
2022-09-23T00:42:57.386Z,3.85714
2022-09-23T00:43:57.424Z,3.35714
2022-09-23T00:44:57.451Z,3.35714
2022-09-23T00:45:57.498Z,3.71429
2022-09-23T00:46:57.524Z,3.64286
2022-09-23T00:47:57.564Z,3.5
2022-09-23T00:48:57.595Z,3.35714
2022-09-23T00:49:57.634Z,3.5
2022-09-23T00:50:57.665Z,3.64286
2022-09-23T00:51:57.706Z,3.71429
2022-09-23T00:52:57.738Z,3.64286
2022-09-23T00:53:57.775Z,3.35714
2022-09-23T00:54:57.812Z,3.21429
2022-09-23T00:55:57.846Z,3.42857
2022-09-23T00:56:57.885Z,3.14286
2022-09-23T00:57:57.931Z,3.14286
2022-09-23T00:58:57.970Z,3.42857
2022-09-23T00:59:58.011Z,3.42857
2022-09-23T01:00:58.076Z,3.71429
2022-09-23T01:01:58.169Z,3.42857
2022-09-23T01:02:58.110Z,3.71429
2022-09-23T01:03:58.153Z,3.64286
2022-09-23T01:04:58.178Z,3.71429
2022-09-23T01:05:58.219Z,3.64286
2022-09-23T01:06:58.259Z,3.85714
2022-09-23T01:07:58.297Z,3.21429
2022-09-23T01:08:58.342Z,3.92857
2022-09-23T01:09:58.386Z,3.92857
2022-09-23T01:10:58.427Z,4.14286
2022-09-23T01:11:58.461Z,3.85714
2022-09-23T01:12:58.504Z,3.64286
2022-09-23T01:13:58.550Z,4.35714
2022-09-23T01:14:58.583Z,4.35714
2022-09-23T01:15:58.621Z,4.35714
2022-09-23T01:16:58.798Z,3.92857
2022-09-23T01:17:58.688Z,4.21429
2022-09-23T01:18:58.738Z,3.5
2022-09-23T01:19:58.762Z,3.71429
2022-09-23T01:20:58.800Z,3.71429
2022-09-23T01:21:58.836Z,3.92857
2022-09-23T01:22:58.867Z,3.85714
2022-09-23T01:23:58.956Z,3.71429
2022-09-23T01:24:58.938Z,3.71429
2022-09-23T01:25:58.970Z,3.71429
2022-09-23T01:26:59.013Z,3.85714
2022-09-23T01:27:59.050Z,3.71429
2022-09-23T01:28:59.086Z,3.5
2022-09-23T01:29:59.126Z,3.85714
2022-09-23T01:30:59.230Z,4.21429
2022-09-23T01:31:59.198Z,3.85714
2022-09-23T01:32:59.246Z,3.35714
2022-09-23T01:33:59.276Z,3.92857
2022-09-23T01:34:59.318Z,3.85714
2022-09-23T01:35:59.347Z,3.85714
2022-09-23T01:36:59.384Z,3.92857
2022-09-23T01:37:59.419Z,3.42857
2022-09-23T01:38:59.540Z,3.92857
2022-09-23T01:39:59.479Z,4.14286
2022-09-23T01:40:59.517Z,4.14286
2022-09-23T01:41:59.540Z,3.85714
2022-09-23T01:42:59.580Z,3.92857
2022-09-23T01:43:59.616Z,3.85714
2022-09-23T01:44:59.635Z,4
2022-09-23T01:45:59.676Z,3.71429
2022-09-23T01:46:59.712Z,3.85714
2022-09-23T01:47:59.818Z,3.71429
2022-09-23T01:48:59.812Z,4.21429
2022-09-23T01:49:59.826Z,3.92857
2022-09-23T01:50:59.860Z,3.71429
2022-09-23T01:51:59.900Z,4.42857
2022-09-23T01:52:59.931Z,3.92857
2022-09-23T01:53:59.956Z,4
2022-09-23T01:55:00.003Z,4.14286
2022-09-23T01:56:00.030Z,4.14286
2022-09-23T01:57:00.065Z,4.14286
2022-09-23T01:58:00.091Z,3.85714
2022-09-23T01:59:00.148Z,3.64286
2022-09-23T02:00:00.239Z,3.71429
2022-09-23T02:01:00.263Z,3.71429
2022-09-23T02:02:00.353Z,3.71429
2022-09-23T02:03:00.287Z,3.64286
2022-09-23T02:04:00.319Z,3.92857
2022-09-23T02:05:00.352Z,4.21429
2022-09-23T02:06:00.409Z,4.14286
2022-09-23T02:07:00.428Z,4.14286
2022-09-23T02:08:00.467Z,3.64286
2022-09-23T02:09:00.521Z,3.71429
2022-09-23T02:10:00.532Z,3.92857
2022-09-23T02:11:00.568Z,3.71429
2022-09-23T02:12:00.593Z,3.71429
2022-09-23T02:13:00.629Z,3.35714
2022-09-23T02:14:00.669Z,3.71429
2022-09-23T02:15:00.706Z,3.64286
2022-09-23T02:16:00.744Z,3.71429
2022-09-23T02:17:00.886Z,3.5
2022-09-23T02:18:00.822Z,3.64286
2022-09-23T02:19:00.854Z,3.64286
2022-09-23T02:20:00.883Z,3.71429
2022-09-23T02:21:00.913Z,3.64286
2022-09-23T02:22:00.954Z,3.71429
2022-09-23T02:23:00.985Z,3.42857
2022-09-23T02:24:01.022Z,3.64286
2022-09-23T02:25:01.071Z,3.5
2022-09-23T02:26:01.090Z,3.92857
2022-09-23T02:27:01.122Z,4.14286
2022-09-23T02:28:01.155Z,3.92857
2022-09-23T02:29:01.196Z,3.64286
2022-09-23T02:30:01.238Z,3.5
2022-09-23T02:31:01.261Z,3.85714
2022-09-23T02:32:01.352Z,4
2022-09-23T02:33:01.341Z,3.92857
2022-09-23T02:34:01.377Z,3.5
2022-09-23T02:35:01.420Z,3.85714
2022-09-23T02:36:01.450Z,3.92857
2022-09-23T02:37:01.500Z,3.42857
2022-09-23T02:38:01.549Z,3.85714
2022-09-23T02:39:01.576Z,4.14286
2022-09-23T02:40:01.617Z,3.85714
2022-09-23T02:41:01.656Z,4
2022-09-23T02:42:01.699Z,3.85714
2022-09-23T02:43:01.736Z,3.64286
2022-09-23T02:44:01.813Z,3.71429
2022-09-23T02:45:01.816Z,3.64286
2022-09-23T02:46:01.869Z,4.21429
2022-09-23T02:47:01.889Z,3.92857
2022-09-23T02:48:01.931Z,3.85714
2022-09-23T02:49:01.964Z,3.85714
2022-09-23T02:50:02.011Z,3.92857
2022-09-23T02:51:02.049Z,3.71429
2022-09-23T02:52:02.083Z,3.71429
2022-09-23T02:53:02.113Z,3.5
2022-09-23T02:54:02.255Z,3.64286
2022-09-23T02:55:02.181Z,3.92857
2022-09-23T02:56:02.221Z,4.21429
2022-09-23T02:57:02.260Z,4.14286
2022-09-23T02:58:02.297Z,4.92857
2022-09-23T02:59:02.335Z,4.21429
2022-09-23T03:00:02.370Z,4.21429
2022-09-23T03:01:02.472Z,4.35714
2022-09-23T03:02:02.585Z,4.5
2022-09-23T03:03:02.481Z,4
2022-09-23T03:04:02.520Z,4.14286
2022-09-23T03:05:02.553Z,4.64286
2022-09-23T03:06:02.582Z,4.85714
2022-09-23T03:07:02.610Z,4.85714
2022-09-23T03:08:02.644Z,5.21429
2022-09-23T03:09:02.790Z,5
2022-09-23T03:10:02.722Z,4.92857
2022-09-23T03:11:02.765Z,4.71429
2022-09-23T03:12:02.793Z,4.35714
2022-09-23T03:13:02.828Z,4.71429
2022-09-23T03:14:02.861Z,5.35714
2022-09-23T03:15:02.910Z,5
2022-09-23T03:16:03.002Z,5
2022-09-23T03:17:02.981Z,4.71429
2022-09-23T03:18:03.003Z,4.92857
2022-09-23T03:19:03.042Z,4.85714
2022-09-23T03:20:03.076Z,4.92857
2022-09-23T03:21:03.117Z,5.14286
2022-09-23T03:22:03.144Z,4.92857
2022-09-23T03:23:03.186Z,4.71429
2022-09-23T03:24:03.218Z,4.64286
2022-09-23T03:25:03.268Z,4.71429
2022-09-23T03:26:03.305Z,4.85714
2022-09-23T03:27:03.329Z,4.92857
2022-09-23T03:28:03.370Z,4.64286
2022-09-23T03:29:03.403Z,4.85714
2022-09-23T03:30:03.437Z,5
2022-09-23T03:31:03.475Z,5.21429
2022-09-23T03:32:03.555Z,4.92857
2022-09-23T03:33:03.549Z,4.85714
2022-09-23T03:34:03.577Z,5.14286
2022-09-23T03:35:03.612Z,5.14286
2022-09-23T03:36:03.645Z,5.14286
2022-09-23T03:37:03.676Z,4.85714
2022-09-23T03:38:03.715Z,4.71429
2022-09-23T03:39:03.753Z,4.5
2022-09-23T03:40:03.827Z,4.85714
2022-09-23T03:41:03.823Z,4.85714
2022-09-23T03:42:03.855Z,5
2022-09-23T03:43:03.874Z,4.5
2022-09-23T03:44:03.911Z,4.92857
2022-09-23T03:45:03.951Z,4.5
2022-09-23T03:46:04.054Z,5.21429
2022-09-23T03:47:04.024Z,4.92857
2022-09-23T03:48:04.051Z,4.71429
2022-09-23T03:49:04.083Z,4.71429
2022-09-23T03:50:04.120Z,4.64286
2022-09-23T03:51:04.157Z,4.64286
2022-09-23T03:52:04.189Z,4.85714
2022-09-23T03:53:04.229Z,4.85714
2022-09-23T03:54:04.264Z,4.71429
2022-09-23T03:55:04.300Z,4.64286
2022-09-23T03:56:04.339Z,4.5
2022-09-23T03:57:04.376Z,4.71429
2022-09-23T03:58:04.412Z,4.85714
2022-09-23T03:59:04.446Z,4.5
2022-09-23T04:00:04.484Z,4.64286
2022-09-23T04:01:04.577Z,4.85714
2022-09-23T04:02:04.603Z,5
2022-09-23T04:03:08.275Z,5.21429
2022-09-23T04:04:04.628Z,4.71429
2022-09-23T04:05:04.659Z,4.71429
2022-09-23T04:06:04.694Z,4.85714
2022-09-23T04:07:04.730Z,5
2022-09-23T04:08:04.766Z,5.21429
2022-09-23T04:09:04.797Z,5.14286
2022-09-23T04:10:04.840Z,4.71429
2022-09-23T04:11:04.866Z,5.35714
2022-09-23T04:12:04.896Z,5.35714
2022-09-23T04:13:04.932Z,4.64286
2022-09-23T04:14:04.966Z,4.64286
2022-09-23T04:15:05.013Z,4.92857
2022-09-23T04:16:05.146Z,4.71429
2022-09-23T04:17:05.090Z,4.71429
2022-09-23T04:18:05.122Z,5
2022-09-23T04:19:05.244Z,5
2022-09-23T04:20:05.184Z,5
2022-09-23T04:21:05.221Z,4.64286
2022-09-23T04:22:05.256Z,5.42857
2022-09-23T04:23:05.289Z,5.14286
2022-09-23T04:24:05.321Z,5.35714
2022-09-23T04:25:05.352Z,5.14286
2022-09-23T04:26:05.386Z,4.92857
2022-09-23T04:27:05.422Z,5.42857
2022-09-23T04:28:05.454Z,5
2022-09-23T04:29:05.612Z,5.21429
2022-09-23T04:30:05.529Z,5.21429
2022-09-23T04:31:05.606Z,5.21429
2022-09-23T04:32:05.595Z,5.42857
2022-09-23T04:33:05.648Z,4.92857
2022-09-23T04:34:05.683Z,5.64286
2022-09-23T04:35:05.721Z,5.14286
2022-09-23T04:36:05.763Z,5.35714
2022-09-23T04:37:05.799Z,5.35714
2022-09-23T04:38:05.831Z,5.35714
2022-09-23T04:39:05.957Z,5.35714
2022-09-23T04:40:05.991Z,5.35714
2022-09-23T04:41:05.939Z,5.21429
2022-09-23T04:42:05.971Z,5.14286
2022-09-23T04:43:07.179Z,5.35714
2022-09-23T04:44:06.042Z,4.71429
2022-09-23T04:45:06.079Z,4.92857
2022-09-23T04:46:06.112Z,4.71429
2022-09-23T04:47:06.169Z,5.35714
2022-09-23T04:48:06.179Z,4.92857
2022-09-23T04:49:06.307Z,5.5
2022-09-23T04:50:06.249Z,4.92857
2022-09-23T04:51:06.278Z,5.5
2022-09-23T04:52:06.322Z,5.21429
2022-09-23T04:53:06.364Z,5.21429
2022-09-23T04:54:06.405Z,5.71429
2022-09-23T04:55:10.514Z,5
2022-09-23T04:56:06.475Z,5
2022-09-23T04:57:06.516Z,4.92857
2022-09-23T04:58:06.551Z,5.5
2022-09-23T04:59:06.770Z,5.71429
2022-09-23T05:00:06.624Z,5.92857
2022-09-23T05:01:06.734Z,5.64286
2022-09-23T05:02:06.774Z,5.42857
2022-09-23T05:03:06.737Z,5.92857
2022-09-23T05:04:06.769Z,6.21429
2022-09-23T05:05:06.813Z,7.21429
2022-09-23T05:06:06.856Z,7
2022-09-23T05:07:06.878Z,6.85714
2022-09-23T05:08:06.911Z,7.21429
2022-09-23T05:09:07.193Z,7.92857
2022-09-23T05:10:06.975Z,7.92857
2022-09-23T05:11:07.014Z,7.42857
2022-09-23T05:12:07.042Z,7.35714
2022-09-23T05:13:08.132Z,7.35714
2022-09-23T05:14:07.140Z,7.64286
2022-09-23T05:15:07.158Z,7.14286
2022-09-23T05:16:07.243Z,7.21429
2022-09-23T05:17:07.253Z,8.35714
2022-09-23T05:18:07.297Z,7.85714
2022-09-23T05:19:07.499Z,7.35714
2022-09-23T05:20:07.342Z,7.5
2022-09-23T05:21:07.378Z,7.64286
2022-09-23T05:22:07.401Z,7.92857
2022-09-23T05:23:07.441Z,7.71429
2022-09-23T05:24:07.489Z,7.64286
2022-09-23T05:25:07.518Z,7.14286
2022-09-23T05:26:07.545Z,7.5
2022-09-23T05:27:07.582Z,7
2022-09-23T05:28:07.624Z,8
2022-09-23T05:29:07.801Z,8.42857
2022-09-23T05:30:07.704Z,8.21429
2022-09-23T05:31:07.841Z,8.14286
2022-09-23T05:32:07.776Z,8.85714
2022-09-23T05:33:07.817Z,9
2022-09-23T05:34:07.852Z,8.71429
2022-09-23T05:35:07.889Z,9.21429
2022-09-23T05:36:08.142Z,8.64286
2022-09-23T05:37:07.949Z,8.35714
2022-09-23T05:38:07.984Z,8.21429
2022-09-23T05:39:08.343Z,8.42857
2022-09-23T05:40:08.102Z,8.14286
2022-09-23T05:41:08.094Z,8.21429
2022-09-23T05:42:08.131Z,8.35714
2022-09-23T05:43:08.161Z,8.21429
2022-09-23T05:44:08.201Z,7.85714
2022-09-23T05:45:08.242Z,7.85714
2022-09-23T05:46:08.593Z,8.14286
2022-09-23T05:47:08.393Z,7.85714
2022-09-23T05:48:08.357Z,7.64286
2022-09-23T05:49:08.479Z,7.71429
2022-09-23T05:50:08.422Z,8.14286
2022-09-23T05:51:08.458Z,8.64286
2022-09-23T05:52:08.517Z,8.42857
2022-09-23T05:53:08.530Z,8.5
2022-09-23T05:54:08.741Z,9
2022-09-23T05:55:08.600Z,8.71429
2022-09-23T05:56:08.642Z,9
2022-09-23T05:57:08.663Z,9.42857
2022-09-23T05:58:08.701Z,9.21429
2022-09-23T05:59:08.800Z,9.64286
2022-09-23T06:00:08.764Z,9.71429
2022-09-23T06:01:08.797Z,9.35714
2022-09-23T06:02:08.913Z,9.35714
2022-09-23T06:03:08.887Z,10.3571
2022-09-23T06:04:09.014Z,9.21429
2022-09-23T06:05:08.934Z,8.92857
2022-09-23T06:06:08.966Z,8.92857
2022-09-23T06:07:09.002Z,9.21429
2022-09-23T06:08:09.032Z,9.85714
2022-09-23T06:09:09.060Z,9.42857
2022-09-23T06:10:09.093Z,9.85714
2022-09-23T06:11:09.135Z,9.85714
2022-09-23T06:12:09.166Z,9.21429
2022-09-23T06:13:09.206Z,9.35714
2022-09-23T06:14:09.237Z,9.14286
2022-09-23T06:15:09.269Z,9.64286
2022-09-23T06:16:09.332Z,10
2022-09-23T06:17:09.346Z,9.42857
2022-09-23T06:18:09.377Z,10.2143
2022-09-23T06:19:09.407Z,9.92857
2022-09-23T06:20:09.447Z,10.1429
2022-09-23T06:21:09.494Z,11.3571
2022-09-23T06:22:09.499Z,10.9286
2022-09-23T06:23:10.540Z,10.2143
2022-09-23T06:24:09.717Z,10.4286
2022-09-23T06:25:09.595Z,9.42857
2022-09-23T06:26:09.632Z,9.92857
2022-09-23T06:27:09.660Z,10.9286
2022-09-23T06:28:09.702Z,10.1429
2022-09-23T06:29:09.731Z,10.8571
2022-09-23T06:30:09.761Z,10.2143
2022-09-23T06:31:13.386Z,10.5
2022-09-23T06:32:09.837Z,10.3571
2022-09-23T06:33:09.863Z,10.7143
2022-09-23T06:34:12.249Z,10.1429
2022-09-23T06:35:19.177Z,10.7143
2022-09-23T06:36:09.962Z,10.8571
2022-09-23T06:37:19.149Z,10.4286
2022-09-23T06:38:10.038Z,10.2143
2022-09-23T06:39:10.080Z,9.85714
2022-09-23T06:40:10.193Z,10.4286
2022-09-23T06:41:10.144Z,10.3571
2022-09-23T06:42:10.175Z,10.8571
2022-09-23T06:43:10.211Z,10.1429
2022-09-23T06:44:10.332Z,10.6429
2022-09-23T06:45:10.286Z,10.1429
2022-09-23T06:46:10.383Z,10.2143
2022-09-23T06:47:10.360Z,9.71429
2022-09-23T06:48:10.395Z,10.3571
2022-09-23T06:49:10.428Z,9.5
2022-09-23T06:50:10.468Z,10.9286
2022-09-23T06:51:10.506Z,10.2143
2022-09-23T06:52:10.540Z,9.92857
2022-09-23T06:53:10.578Z,9.71429
2022-09-23T06:54:10.646Z,8.92857
2022-09-23T06:55:10.646Z,9.5
2022-09-23T06:56:10.680Z,9.64286
2022-09-23T06:57:10.714Z,9.5
2022-09-23T06:58:10.749Z,9.21429
2022-09-23T06:59:10.810Z,9
2022-09-23T07:00:10.817Z,9
2022-09-23T07:01:10.894Z,9.21429
2022-09-23T07:02:11.261Z,9.35714
2022-09-23T07:03:10.928Z,9.5
2022-09-23T07:04:10.962Z,9.64286
2022-09-23T07:05:11.004Z,9.21429
2022-09-23T07:06:11.028Z,9.21429
2022-09-23T07:07:11.069Z,9.85714
2022-09-23T07:08:11.111Z,9.64286
2022-09-23T07:09:11.143Z,9.71429
2022-09-23T07:10:11.160Z,10.3571
2022-09-23T07:11:11.194Z,10
2022-09-23T07:12:11.232Z,10
2022-09-23T07:13:15.516Z,9.85714
2022-09-23T07:14:11.317Z,9.71429
2022-09-23T07:15:11.352Z,9.85714
2022-09-23T07:16:11.543Z,9.35714
2022-09-23T07:17:11.419Z,9.14286
2022-09-23T07:18:11.450Z,9.35714
2022-09-23T07:19:11.483Z,8.85714
2022-09-23T07:20:11.521Z,8.35714
2022-09-23T07:21:11.558Z,9
2022-09-23T07:22:11.593Z,8
2022-09-23T07:23:11.623Z,7.85714
2022-09-23T07:24:11.655Z,8.5
2022-09-23T07:25:11.685Z,8.42857
2022-09-23T07:26:11.721Z,8.42857
2022-09-23T07:27:11.757Z,8
2022-09-23T07:28:11.796Z,7.92857
2022-09-23T07:29:11.826Z,8.64286
2022-09-23T07:30:21.066Z,7.71429
2022-09-23T07:31:12.018Z,7.85714
2022-09-23T07:32:14.086Z,7.71429
2022-09-23T07:33:25.154Z,7.5
2022-09-23T07:34:12.082Z,7.42857
2022-09-23T07:35:12.042Z,7.64286
2022-09-23T07:36:12.080Z,7.64286
2022-09-23T07:37:12.107Z,7.71429
2022-09-23T07:38:12.151Z,7.5
2022-09-23T07:39:12.181Z,7.42857
2022-09-23T07:40:12.280Z,7.5
2022-09-23T07:41:12.247Z,7.42857
2022-09-23T07:42:12.291Z,6.92857
2022-09-23T07:43:12.327Z,6.92857
2022-09-23T07:44:12.375Z,6.64286
2022-09-23T07:45:12.403Z,6.14286
2022-09-23T07:46:12.495Z,6.92857
2022-09-23T07:47:12.472Z,6.71429
2022-09-23T07:48:12.515Z,6.92857
2022-09-23T07:49:12.535Z,6.42857
2022-09-23T07:50:12.567Z,6.5
2022-09-23T07:51:12.611Z,7
2022-09-23T07:52:12.656Z,6.85714
2022-09-23T07:53:12.697Z,6.71429
2022-09-23T07:54:12.729Z,6.21429
2022-09-23T07:55:13.562Z,6.71429
2022-09-23T07:56:12.803Z,6.42857
2022-09-23T07:57:12.841Z,6.92857
2022-09-23T07:58:12.873Z,6.42857
2022-09-23T07:59:12.911Z,6.42857
2022-09-23T08:00:12.942Z,6.42857
2022-09-23T08:01:13.044Z,6.64286
2022-09-23T08:02:13.104Z,6.92857
2022-09-23T08:03:13.124Z,6.64286
2022-09-23T08:04:13.085Z,6.35714
2022-09-23T08:05:13.117Z,6.64286
2022-09-23T08:06:13.149Z,6.5
2022-09-23T08:07:13.183Z,6.64286
2022-09-23T08:08:13.225Z,6.35714
2022-09-23T08:09:13.241Z,6.35714
2022-09-23T08:10:13.278Z,5.64286
2022-09-23T08:11:13.420Z,5.92857
2022-09-23T08:12:16.029Z,6
2022-09-23T08:13:13.380Z,6.42857
2022-09-23T08:14:13.414Z,6.35714
2022-09-23T08:15:13.454Z,6.14286
2022-09-23T08:16:13.539Z,6.35714
2022-09-23T08:17:13.521Z,5.92857
2022-09-23T08:18:13.559Z,5.85714
2022-09-23T08:19:13.593Z,5.71429
2022-09-23T08:20:13.630Z,5.64286
2022-09-23T08:21:13.665Z,6.21429
2022-09-23T08:22:13.701Z,5.92857
2022-09-23T08:23:13.738Z,5.64286
2022-09-23T08:24:13.776Z,5.71429
2022-09-23T08:25:13.815Z,5.35714
2022-09-23T08:26:20.157Z,5.71429
2022-09-23T08:27:13.888Z,5.85714
2022-09-23T08:28:13.928Z,5.85714
2022-09-23T08:29:13.960Z,5.64286
2022-09-23T08:30:13.990Z,6.21429
2022-09-23T08:31:14.086Z,5.5
2022-09-23T08:32:14.057Z,5.42857
2022-09-23T08:33:14.096Z,5.42857
2022-09-23T08:34:14.132Z,5.5
2022-09-23T08:35:14.169Z,5.21429
2022-09-23T08:36:14.204Z,5.92857
2022-09-23T08:37:14.238Z,5.71429
2022-09-23T08:38:14.275Z,5.71429
2022-09-23T08:39:14.304Z,5.42857
2022-09-23T08:40:14.384Z,6
2022-09-23T08:41:14.367Z,5.71429
2022-09-23T08:42:14.407Z,5.21429
2022-09-23T08:43:14.433Z,5.35714
2022-09-23T08:44:14.464Z,5.21429
2022-09-23T08:45:14.500Z,5.21429
2022-09-23T08:46:14.602Z,5.35714
2022-09-23T08:47:14.570Z,5.64286
2022-09-23T08:48:14.612Z,5.42857
2022-09-23T08:49:14.646Z,5.21429
2022-09-23T08:50:14.681Z,5.64286
2022-09-23T08:51:14.710Z,5.42857
2022-09-23T08:52:14.743Z,5.71429
2022-09-23T08:53:14.779Z,4.71429
2022-09-23T08:54:14.810Z,5.85714
2022-09-23T08:55:14.852Z,5.85714
2022-09-23T08:56:14.890Z,5.21429
2022-09-23T08:57:14.927Z,5.5
2022-09-23T08:58:25.042Z,5.42857
2022-09-23T08:59:15.005Z,5.42857
2022-09-23T09:00:15.028Z,5.35714
2022-09-23T09:01:15.094Z,5.21429
2022-09-23T09:02:15.153Z,5.5
2022-09-23T09:03:15.128Z,5.42857
2022-09-23T09:04:15.160Z,5.42857
2022-09-23T09:05:15.202Z,5.35714
2022-09-23T09:06:15.234Z,5.14286
2022-09-23T09:07:35.121Z,5.42857
2022-09-23T09:08:15.299Z,5.42857
2022-09-23T09:09:15.330Z,5.42857
2022-09-23T09:10:15.371Z,5.14286
2022-09-23T09:11:15.407Z,5.14286
2022-09-23T09:12:15.437Z,4.92857
2022-09-23T09:13:15.480Z,5.14286
2022-09-23T09:14:15.512Z,4.92857
2022-09-23T09:15:15.544Z,5.5
2022-09-23T09:16:15.603Z,5.21429
2022-09-23T09:17:15.608Z,4.64286
2022-09-23T09:18:15.642Z,5.14286
2022-09-23T09:19:15.687Z,5.42857
2022-09-23T09:20:15.719Z,4.85714
2022-09-23T09:21:15.748Z,4.71429
2022-09-23T09:22:15.788Z,4.64286
2022-09-23T09:23:15.822Z,5
2022-09-23T09:24:15.900Z,4.92857
2022-09-23T09:25:15.898Z,4.64286
2022-09-23T09:26:15.930Z,4.64286
2022-09-23T09:27:15.974Z,4.42857
2022-09-23T09:28:16.002Z,4.35714
2022-09-23T09:29:34.469Z,4.85714
2022-09-23T09:30:16.074Z,4.5
2022-09-23T09:31:16.270Z,4.14286
2022-09-23T09:32:16.147Z,4.85714
2022-09-23T09:33:16.171Z,4.85714
2022-09-23T09:34:16.195Z,4.71429
2022-09-23T09:35:16.231Z,4.5
2022-09-23T09:36:16.274Z,5.35714
2022-09-23T09:37:16.304Z,4.5
2022-09-23T09:38:16.340Z,4.42857
2022-09-23T09:39:16.374Z,4.92857
2022-09-23T09:40:16.449Z,4.71429
2022-09-23T09:41:16.443Z,4.42857
2022-09-23T09:42:16.482Z,4
2022-09-23T09:43:16.507Z,4.21429
2022-09-23T09:44:16.549Z,4.35714
2022-09-23T09:45:19.471Z,4.64286
2022-09-23T09:46:16.732Z,4.71429
2022-09-23T09:47:16.652Z,4.21429
2022-09-23T09:48:16.688Z,4.21429
2022-09-23T09:49:16.722Z,4.5
2022-09-23T09:50:16.757Z,4
2022-09-23T09:51:16.783Z,4.14286
2022-09-23T09:52:16.818Z,4
2022-09-23T09:53:16.786Z,4.14286
2022-09-23T09:54:16.823Z,3.64286
2022-09-23T09:55:16.924Z,3.71429
2022-09-23T09:56:16.892Z,3.71429
2022-09-23T09:57:16.931Z,3.64286
2022-09-23T09:58:16.964Z,4.21429
2022-09-23T09:59:17.001Z,4.21429
2022-09-23T10:00:17.040Z,3.5
2022-09-23T10:01:17.114Z,4.85714
2022-09-23T10:02:17.110Z,3.71429
2022-09-23T10:03:17.148Z,3.85714
2022-09-23T10:04:17.226Z,3.42857
2022-09-23T10:05:17.243Z,3.71429
2022-09-23T10:06:17.258Z,3.35714
2022-09-23T10:07:17.298Z,3.64286
2022-09-23T10:08:17.314Z,3.14286
2022-09-23T10:09:17.347Z,2.92857
2022-09-23T10:10:31.955Z,3.14286
2022-09-23T10:11:17.409Z,3
2022-09-23T10:12:17.444Z,3.14286
2022-09-23T10:13:17.480Z,3.42857
2022-09-23T10:14:17.527Z,3.21429
2022-09-23T10:15:17.548Z,3.5
2022-09-23T10:16:17.650Z,3.5
2022-09-23T10:17:17.619Z,3.5
2022-09-23T10:18:17.645Z,3.21429
2022-09-23T10:19:17.686Z,2.71429
2022-09-23T10:20:17.723Z,3.35714
2022-09-23T10:21:17.749Z,3
2022-09-23T10:22:17.786Z,2.92857
2022-09-23T10:23:17.818Z,3.35714
2022-09-23T10:24:17.851Z,2.92857
2022-09-23T10:25:17.879Z,3.14286
2022-09-23T10:26:17.920Z,3.21429
2022-09-23T10:27:17.968Z,2.92857
2022-09-23T10:28:17.992Z,2.42857
2022-09-23T10:29:18.024Z,2.64286
2022-09-23T10:30:18.058Z,2.5
2022-09-23T10:31:18.179Z,2.85714
2022-09-23T10:32:18.135Z,3
2022-09-23T10:33:18.165Z,3.35714
2022-09-23T10:34:18.201Z,3
2022-09-23T10:35:18.229Z,2.71429
2022-09-23T10:36:18.264Z,2.85714
2022-09-23T10:37:18.301Z,2.92857
2022-09-23T10:38:18.340Z,3
2022-09-23T10:39:18.381Z,3.14286
2022-09-23T10:40:18.481Z,3.21429
2022-09-23T10:41:18.456Z,3.14286
2022-09-23T10:42:18.486Z,2.92857
2022-09-23T10:43:18.508Z,2.85714
2022-09-23T10:44:18.542Z,3
2022-09-23T10:45:18.571Z,2.92857
2022-09-23T10:46:18.608Z,3.21429
2022-09-23T10:47:18.638Z,3
2022-09-23T10:48:18.675Z,3.42857
2022-09-23T10:49:18.709Z,3.35714
2022-09-23T10:50:18.745Z,3.42857
2022-09-23T10:51:22.707Z,3.35714
2022-09-23T10:52:18.816Z,3.14286
2022-09-23T10:53:18.849Z,3.42857
2022-09-23T10:54:18.882Z,3.64286
2022-09-23T10:55:18.915Z,3.21429
2022-09-23T10:56:18.955Z,3.64286
2022-09-23T10:57:18.990Z,3.5
2022-09-23T10:58:19.026Z,3.21429
2022-09-23T10:59:19.061Z,3
2022-09-23T11:00:19.097Z,3.42857
2022-09-23T11:01:19.197Z,3.42857
2022-09-23T11:02:19.167Z,3.14286
2022-09-23T11:03:19.204Z,2.92857
2022-09-23T11:04:19.275Z,2.92857
2022-09-23T11:05:19.259Z,2.71429
2022-09-23T11:06:19.287Z,2.71429
2022-09-23T11:07:19.321Z,3.21429
2022-09-23T11:08:19.349Z,3.21429
2022-09-23T11:09:19.386Z,3.14286
2022-09-23T11:10:41.902Z,3
2022-09-23T11:11:19.445Z,3
2022-09-23T11:12:19.487Z,4.92857
2022-09-23T11:13:19.521Z,3.21429
2022-09-23T11:14:19.560Z,2.92857
2022-09-23T11:15:19.594Z,3.21429
2022-09-23T11:16:19.759Z,3
2022-09-23T11:17:19.654Z,2.64286
2022-09-23T11:18:19.691Z,2.64286
2022-09-23T11:19:19.726Z,2.71429
2022-09-23T11:20:19.757Z,2.85714
2022-09-23T11:21:19.796Z,3
2022-09-23T11:22:19.827Z,2.64286
2022-09-23T11:23:19.867Z,2.85714
2022-09-23T11:24:19.894Z,2.5
2022-09-23T11:25:19.924Z,2.35714
2022-09-23T11:26:19.958Z,2.85714
2022-09-23T11:27:19.995Z,3.64286
2022-09-23T11:28:20.028Z,2.5
2022-09-23T11:29:20.066Z,2.42857
2022-09-23T11:30:20.089Z,2.42857
2022-09-23T11:31:20.238Z,2.21429
2022-09-23T11:32:20.151Z,2.5
2022-09-23T11:33:20.197Z,2.35714
2022-09-23T11:34:20.291Z,2.35714
2022-09-23T11:35:20.252Z,2.42857
2022-09-23T11:36:20.293Z,2.71429
2022-09-23T11:37:20.326Z,2.71429
2022-09-23T11:38:20.365Z,2.42857
2022-09-23T11:39:20.397Z,2.42857
2022-09-23T11:40:20.454Z,2.71429
2022-09-23T11:41:20.466Z,2.64286
2022-09-23T11:42:20.500Z,2.85714
2022-09-23T11:43:20.531Z,2.42857
2022-09-23T11:44:20.557Z,2.42857
2022-09-23T11:45:20.618Z,2.35714
2022-09-23T11:46:20.665Z,2.64286
2022-09-23T11:47:20.671Z,2.42857
2022-09-23T11:48:20.705Z,2.64286
2022-09-23T11:49:20.741Z,2.5
2022-09-23T11:50:20.767Z,2.35714
2022-09-23T11:51:20.806Z,2.5
2022-09-23T11:52:20.836Z,2.42857
2022-09-23T11:53:20.875Z,2.64286
2022-09-23T11:54:21.003Z,2.14286
2022-09-23T11:55:23.239Z,2.42857
2022-09-23T11:56:30.690Z,2.35714
2022-09-23T11:57:21.009Z,2.5
2022-09-23T11:58:24.816Z,2.5
2022-09-23T11:59:28.117Z,2.85714
2022-09-23T12:00:21.091Z,2.35714
2022-09-23T12:01:27.428Z,2.5
2022-09-23T12:02:22.932Z,2.21429
2022-09-23T12:03:22.281Z,2.5
2022-09-23T12:04:21.588Z,2.64286
2022-09-23T12:05:21.401Z,2.35714
2022-09-23T12:06:21.303Z,2.21429
2022-09-23T12:07:21.335Z,2.21429
2022-09-23T12:08:21.362Z,2.64286
2022-09-23T12:09:35.812Z,2
2022-09-23T12:10:21.428Z,2.14286
2022-09-23T12:11:21.465Z,2.14286
2022-09-23T12:12:26.306Z,2.21429
2022-09-23T12:13:21.527Z,2.14286
2022-09-23T12:14:21.585Z,2.14286
2022-09-23T12:15:21.602Z,2.21429
2022-09-23T12:16:21.714Z,2.21429
2022-09-23T12:17:21.675Z,2.21429
2022-09-23T12:18:23.252Z,2.35714
2022-09-23T12:19:21.739Z,2.35714
2022-09-23T12:20:21.769Z,2.42857
2022-09-23T12:21:45.692Z,2.21429
2022-09-23T12:22:21.851Z,2.42857
2022-09-23T12:23:21.883Z,2.14286
2022-09-23T12:24:21.923Z,2.21429